Time;durP1;ratioP1;P1;durP2;ratioP2;P2;SDS_P1;SDS_P2;PMS_P1;PMS_P2;Temp;Humidity;BMP_temperature;BMP_pressure;BME280_temperature;BME280_humidity;BME280_pressure;Samples;Min_cycle;Max_cycle;Signal;HPM_P1;HPM_P2
2022/07/03 00:00:36;;;;;;;4.22;2.00;;;;;;;19.93;50.99;100805.51;1772186;80;21637;-76
2022/07/03 00:03:05;;;;;;;3.12;1.92;;;;;;;19.93;50.86;100799.40;1767788;80;21079;-80
2022/07/03 00:05:35;;;;;;;3.92;2.05;;;;;;;19.93;50.86;100793.84;1768207;80;21012;-77
2022/07/03 00:08:05;;;;;;;2.90;2.10;;;;;;;19.90;50.95;100787.38;1757251;80;21048;-79
2022/07/03 00:10:36;;;;;;;4.62;2.00;;;;;;;19.88;50.99;100788.72;1758883;80;21032;-79
2022/07/03 00:13:05;;;;;;;6.60;2.30;;;;;;;19.84;50.95;100784.20;1758482;80;21439;-80
2022/07/03 00:15:34;;;;;;;5.42;2.42;;;;;;;19.82;50.97;100786.94;1784618;80;21046;-78
2022/07/03 00:18:04;;;;;;;3.87;1.82;;;;;;;19.81;51.21;100778.30;1788063;80;21086;-77
2022/07/03 00:20:38;;;;;;;6.35;2.05;;;;;;;19.80;51.19;100779.39;1762857;80;21090;-80
2022/07/03 00:23:09;;;;;;;5.62;2.40;;;;;;;19.75;51.04;100777.36;1776895;80;21011;-79
2022/07/03 00:25:40;;;;;;;4.95;2.02;;;;;;;19.71;50.95;100776.72;1762149;80;21083;-80
2022/07/03 00:28:10;;;;;;;4.92;2.10;;;;;;;19.68;51.18;100771.11;1719752;80;21054;-77
2022/07/03 00:30:39;;;;;;;5.20;2.00;;;;;;;19.67;51.26;100761.63;1787694;80;21011;-77
2022/07/03 00:33:07;;;;;;;5.05;1.95;;;;;;;19.63;51.25;100764.91;1742877;81;21003;-79
2022/07/03 00:35:38;;;;;;;4.42;2.08;;;;;;;19.61;51.14;100760.69;1771433;80;21075;-79
2022/07/03 00:38:07;;;;;;;5.22;2.10;;;;;;;19.60;51.02;100768.73;1764966;80;21059;-79
2022/07/03 00:40:37;;;;;;;3.55;1.90;;;;;;;19.55;50.92;100756.97;1774348;80;21047;-75
2022/07/03 00:43:06;;;;;;;4.60;2.02;;;;;;;19.52;51.04;100755.20;1741767;80;21443;-78
2022/07/03 00:45:36;;;;;;;3.87;1.87;;;;;;;19.52;51.33;100753.81;1752280;81;21443;-78
2022/07/03 00:48:07;;;;;;;4.83;1.80;;;;;;;19.46;51.49;100751.44;1741077;80;21022;-79
2022/07/03 00:50:36;;;;;;;3.58;1.85;;;;;;;19.37;51.59;100752.92;1776875;80;21070;-79
2022/07/03 00:53:05;;;;;;;3.85;2.00;;;;;;;19.37;51.58;100748.76;1762686;80;21433;-78
2022/07/03 00:55:34;;;;;;;3.12;1.87;;;;;;;19.36;51.60;100745.68;1764842;80;21111;-79
2022/07/03 00:58:03;;;;;;;4.55;1.92;;;;;;;19.37;51.65;100752.92;1770652;80;21003;-77
2022/07/03 01:00:33;;;;;;;4.60;2.00;;;;;;;19.39;51.69;100745.73;1770845;80;21071;-78
2022/07/03 01:03:05;;;;;;;4.60;2.08;;;;;;;19.38;51.60;100748.21;1774041;80;21082;-77
2022/07/03 01:05:40;;;;;;;3.20;1.65;;;;;;;19.33;51.58;100744.24;1778407;80;21098;-79
2022/07/03 01:08:39;;;;;;;2.98;1.82;;;;;;;19.32;51.63;100752.83;1770770;80;21118;-78
2022/07/03 01:11:25;;;;;;;4.15;1.85;;;;;;;19.29;51.70;100749.15;1761976;80;21039;-78
2022/07/03 01:14:23;;;;;;;3.75;1.75;;;;;;;19.26;51.78;100749.09;1763511;80;21025;-81
2022/07/03 01:17:03;;;;;;;3.12;1.80;;;;;;;19.24;51.71;100745.72;1775418;80;21039;-79
2022/07/03 01:19:41;;;;;;;4.50;1.80;;;;;;;19.23;51.71;100748.20;1758067;80;21562;-79
2022/07/03 01:22:39;;;;;;;4.70;2.02;;;;;;;19.22;51.77;100747.06;1762339;80;21083;-79
2022/07/03 01:25:49;;;;;;;5.05;1.67;;;;;;;19.21;51.84;100745.37;1750300;80;21014;-79
2022/07/03 01:28:20;;;;;;;3.70;1.60;;;;;;;19.20;51.92;100742.30;1771457;80;21078;-80
2022/07/03 01:30:54;;;;;;;3.17;1.87;;;;;;;19.17;51.95;100745.56;1758238;80;21031;-78
2022/07/03 01:33:29;;;;;;;2.47;1.60;;;;;;;19.13;52.03;100743.82;1768934;80;21415;-78
2022/07/03 01:36:05;;;;;;;2.52;1.62;;;;;;;19.11;52.08;100740.45;1775960;80;21107;-80
2022/07/03 01:38:38;;;;;;;7.20;2.05;;;;;;;19.09;52.17;100739.84;1765971;80;20995;-78
2022/07/03 01:41:09;;;;;;;3.22;2.00;;;;;;;19.07;52.20;100736.47;1763377;80;21035;-77
2022/07/03 01:43:48;;;;;;;2.70;1.62;;;;;;;19.07;52.17;100736.47;1788802;80;21038;-78
2022/07/03 01:46:19;;;;;;;4.35;1.87;;;;;;;19.06;52.14;100741.73;1760658;80;21087;-79
2022/07/03 01:48:48;;;;;;;3.62;1.80;;;;;;;19.04;52.22;100736.97;1771317;80;21094;-79
2022/07/03 01:51:17;;;;;;;3.67;2.00;;;;;;;19.03;52.37;100735.82;1772867;80;21512;-77
2022/07/03 01:53:48;;;;;;;3.30;1.52;;;;;;;19.01;52.46;100737.45;1771024;80;21074;-77
2022/07/03 01:56:18;;;;;;;3.62;1.70;;;;;;;18.98;52.45;100733.23;1771164;80;21041;-79
2022/07/03 01:58:47;;;;;;;3.25;1.90;;;;;;;18.98;52.49;100728.22;1770777;80;21072;-78
2022/07/03 02:01:58;;;;;;;6.87;2.00;;;;;;;18.96;52.59;100736.80;1771661;80;21026;-77
2022/07/03 02:04:37;;;;;;;7.62;2.47;;;;;;;18.95;52.52;100733.72;1770930;80;21018;-79
2022/07/03 02:07:14;;;;;;;5.80;2.55;;;;;;;18.95;52.55;100737.05;1732236;81;21043;-79
2022/07/03 02:10:04;;;;;;;4.40;2.30;;;;;;;18.97;52.59;100741.81;1738458;82;21032;-79
2022/07/03 02:12:41;;;;;;;2.45;1.60;;;;;;;18.99;52.62;100740.48;1724927;82;21003;-79
2022/07/03 02:15:11;;;;;;;3.00;1.47;;;;;;;18.95;52.29;100745.37;1737426;82;21063;-79
2022/07/03 02:17:46;;;;;;;3.22;1.80;;;;;;;18.93;52.22;100748.94;1731882;82;21003;-79
2022/07/03 02:20:16;;;;;;;3.72;1.65;;;;;;;18.90;52.34;100739.72;1707148;83;21051;-78
2022/07/03 02:23:02;;;;;;;4.35;1.90;;;;;;;18.89;52.45;100739.41;1726239;82;21424;-79
2022/07/03 02:25:40;;;;;;;2.15;1.50;;;;;;;18.88;52.58;100740.50;1736570;82;21050;-77
2022/07/03 02:28:21;;;;;;;;;;;;;;;18.88;52.61;100735.80;1729067;82;21055;-77
2022/07/03 02:30:52;;;;;;;4.15;1.70;;;;;;;18.88;52.76;100735.80;1731731;82;20164;-80
2022/07/03 02:33:29;;;;;;;2.70;2.10;;;;;;;18.90;52.71;100738.33;1697264;82;21051;-77
2022/07/03 02:35:58;;;;;;;4.45;1.80;;;;;;;18.89;52.95;100740.80;1742010;82;21510;-77
2022/07/03 02:38:27;;;;;;;2.98;2.02;;;;;;;18.89;52.88;100740.80;1724135;82;21037;-76
2022/07/03 02:41:18;;;;;;;3.33;1.57;;;;;;;18.89;52.65;100742.19;1737959;82;20992;-77
2022/07/03 02:43:59;;;;;;;4.30;1.75;;;;;;;18.90;52.66;100735.55;1719162;82;21498;-78
2022/07/03 02:46:49;;;;;;;3.52;1.98;;;;;;;18.90;52.75;100732.77;1730621;82;21015;-78
2022/07/03 02:49:35;;;;;;;3.85;2.00;;;;;;;18.89;52.92;100738.02;1724521;82;21461;-78
2022/07/03 02:52:32;;;;;;;4.12;2.05;;;;;;;18.90;53.24;100726.67;1731078;82;21002;-78
2022/07/03 02:55:44;;;;;;;3.92;1.50;;;;;;;18.91;53.56;100729.75;1731718;82;21038;-79
2022/07/03 02:58:31;;;;;;;3.77;1.77;;;;;;;18.92;53.38;100733.37;1727311;82;21533;-77
2022/07/03 03:01:35;;;;;;;5.85;2.25;;;;;;;18.94;53.51;100739.52;1720215;82;21047;-78
2022/07/03 03:04:32;;;;;;;2.52;1.98;;;;;;;18.93;53.48;100744.23;1719646;82;21029;-76
2022/07/03 03:07:19;;;;;;;5.85;2.12;;;;;;;18.91;54.03;100740.02;1725725;82;21039;-77
2022/07/03 03:09:48;;;;;;;6.33;4.00;;;;;;;18.91;54.22;100741.40;1747904;82;21447;-77
2022/07/03 03:12:22;;;;;;;26.33;15.78;;;;;;;18.93;54.40;100731.73;1735858;82;21027;-78
2022/07/03 03:14:56;;;;;;;10.55;7.05;;;;;;;18.95;54.60;100730.95;1711472;82;21047;-79
2022/07/03 03:17:24;;;;;;;12.73;6.28;;;;;;;18.98;54.67;100736.02;1739133;82;21061;-77
2022/07/03 03:19:56;;;;;;;8.45;4.55;;;;;;;19.01;54.90;100729.13;1734968;82;21003;-76
2022/07/03 03:23:04;;;;;;;6.47;3.83;;;;;;;19.04;54.84;100734.73;1737024;82;21023;-78
2022/07/03 03:25:34;;;;;;;7.97;3.47;;;;;;;19.07;54.88;100734.23;1741985;82;21519;-77
2022/07/03 03:28:03;;;;;;;5.08;3.45;;;;;;;19.09;55.14;100730.12;1744555;82;21130;-79
2022/07/03 03:30:32;;;;;;;8.18;3.15;;;;;;;19.11;55.23;100736.28;1741936;82;21067;-78
2022/07/03 03:33:02;;;;;;;7.35;2.80;;;;;;;19.13;55.20;100725.77;1744935;82;21760;-79
2022/07/03 03:35:31;;;;;;;8.30;3.08;;;;;;;19.15;55.21;100724.98;1729793;82;21008;-78
2022/07/03 03:38:00;;;;;;;6.30;2.77;;;;;;;19.19;55.53;100726.17;1736594;82;21459;-76
2022/07/03 03:40:29;;;;;;;7.67;2.85;;;;;;;19.23;55.45;100730.14;1728073;82;21013;-78
2022/07/03 03:42:58;;;;;;;8.95;3.40;;;;;;;19.29;55.25;100736.10;1720002;82;21057;-79
2022/07/03 03:45:28;;;;;;;4.85;2.30;;;;;;;19.33;54.82;100733.13;1738695;82;21051;-79
2022/07/03 03:47:57;;;;;;;5.50;2.50;;;;;;;19.41;55.13;100735.21;1746956;82;21035;-78
2022/07/03 03:50:26;;;;;;;7.22;2.20;;;;;;;19.46;54.84;100736.70;1731897;82;21134;-79
2022/07/03 03:52:56;;;;;;;7.45;2.37;;;;;;;19.49;54.47;100738.98;1743025;82;21019;-76
2022/07/03 03:55:25;;;;;;;8.18;2.35;;;;;;;19.53;53.43;100739.70;1726827;82;21094;-78
2022/07/03 03:57:56;;;;;;;3.70;2.10;;;;;;;19.61;53.00;100744.01;1746651;82;21036;-77
2022/07/03 04:00:25;;;;;;;4.50;1.80;;;;;;;19.67;52.78;100740.23;1719754;82;20999;-77
2022/07/03 04:02:54;;;;;;;4.12;2.00;;;;;;;19.74;52.35;100745.09;1743053;82;21483;-76
2022/07/03 04:05:24;;;;;;;4.92;2.15;;;;;;;19.80;52.02;100741.30;1720084;82;21026;-78
2022/07/03 04:07:53;;;;;;;5.78;1.90;;;;;;;19.87;51.79;100739.76;1743249;80;21086;-78
2022/07/03 04:10:24;;;;;;;2.42;1.70;;;;;;;19.94;51.40;100743.22;1731819;82;21097;-78
2022/07/03 04:12:52;;;;;;;4.85;1.67;;;;;;;20.01;51.31;100745.84;1717280;82;21065;-78
2022/07/03 04:15:21;;;;;;;3.40;2.08;;;;;;;20.08;50.54;100740.41;1731264;82;21023;-78
2022/07/03 04:17:53;;;;;;;4.67;2.15;;;;;;;20.18;51.15;100740.61;1731430;82;21010;-78
2022/07/03 04:20:26;;;;;;;8.05;2.00;;;;;;;20.25;50.67;100740.45;1737026;82;21023;-78
2022/07/03 04:22:57;;;;;;;3.15;1.95;;;;;;;20.35;50.21;100732.25;1725524;82;21026;-75
2022/07/03 04:25:27;;;;;;;3.80;1.47;;;;;;;20.47;49.16;100728.02;1719799;82;21062;-78
2022/07/03 04:27:56;;;;;;;4.90;1.57;;;;;;;20.58;48.61;100723.73;1731664;82;21047;-77
2022/07/03 04:30:29;;;;;;;3.33;1.75;;;;;;;20.70;48.14;100719.45;1731615;82;21024;-78
2022/07/03 04:32:58;;;;;;;5.05;1.82;;;;;;;20.82;47.82;100719.36;1736906;82;21034;-73
2022/07/03 04:35:27;;;;;;;6.28;2.10;;;;;;;20.91;47.88;100703.89;1712789;82;21779;-77
2022/07/03 04:37:57;;;;;;;5.85;1.90;;;;;;;21.01;47.73;100710.98;1738355;82;21027;-78
2022/07/03 04:40:26;;;;;;;4.17;1.80;;;;;;;21.11;47.47;100711.11;1723209;82;21102;-79
2022/07/03 04:42:55;;;;;;;4.47;1.70;;;;;;;21.19;47.07;100713.44;1726944;82;21015;-78
2022/07/03 04:45:24;;;;;;;5.35;1.72;;;;;;;21.29;46.95;100707.72;1721820;82;21039;-78
2022/07/03 04:47:55;;;;;;;4.92;2.00;;;;;;;21.38;46.65;100713.12;1717626;82;21083;-78
2022/07/03 04:50:23;;;;;;;5.05;1.85;;;;;;;21.46;46.69;100714.93;1724852;82;21077;-75
2022/07/03 04:52:53;;;;;;;2.52;2.12;;;;;;;21.57;46.42;100709.45;1737377;82;21035;-78
2022/07/03 04:55:23;;;;;;;4.45;1.90;;;;;;;21.66;45.93;100704.53;1734890;82;21559;-77
2022/07/03 04:57:53;;;;;;;7.40;1.80;;;;;;;21.76;45.97;100705.19;1727823;82;21032;-80
2022/07/03 05:00:22;;;;;;;6.28;1.80;;;;;;;21.94;45.51;100707.59;1733397;82;21030;-79
2022/07/03 05:02:52;;;;;;;7.22;1.60;;;;;;;22.17;45.06;100709.24;1718633;82;21011;-77
2022/07/03 05:05:22;;;;;;;7.50;1.65;;;;;;;22.48;44.21;100702.48;1733008;82;21059;-80
2022/07/03 05:07:51;;;;;;;3.55;1.60;;;;;;;22.82;43.48;100705.81;1736341;80;21028;-76
2022/07/03 05:10:20;;;;;;;4.08;1.70;;;;;;;23.18;42.56;100697.87;1747222;82;21030;-77
2022/07/03 05:12:50;;;;;;;3.62;1.60;;;;;;;23.55;41.96;100699.16;1726243;82;21035;-78
2022/07/03 05:15:19;;;;;;;3.87;1.57;;;;;;;23.94;40.80;100701.45;1748392;82;21066;-78
2022/07/03 05:17:50;;;;;;;4.90;1.65;;;;;;;24.32;40.00;100699.53;1728205;82;21019;-78
2022/07/03 05:20:24;;;;;;;2.15;1.47;;;;;;;24.70;38.74;100692.17;1720080;82;21058;-77
2022/07/03 05:22:58;;;;;;;2.75;1.50;;;;;;;25.06;38.12;100696.59;1726341;82;21011;-74
2022/07/03 05:25:27;;;;;;;7.40;1.70;;;;;;;25.45;37.62;100686.89;1722731;82;21032;-78
2022/07/03 05:27:57;;;;;;;4.85;1.80;;;;;;;25.83;36.88;100687.23;1751105;82;21031;-77
2022/07/03 05:30:26;;;;;;;9.00;2.20;;;;;;;26.16;36.57;100686.41;1738744;82;21087;-79
2022/07/03 05:32:56;;;;;;;4.28;1.60;;;;;;;26.49;34.92;100683.88;1733741;82;21050;-78
2022/07/03 05:35:25;;;;;;;3.98;1.65;;;;;;;26.77;34.20;100686.42;1724170;82;21010;-78
2022/07/03 05:37:54;;;;;;;4.22;1.80;;;;;;;26.98;33.69;100681.42;1728415;82;21023;-81
2022/07/03 05:40:23;;;;;;;5.50;1.77;;;;;;;27.07;33.37;100683.84;1740313;82;20990;-81
2022/07/03 05:42:53;;;;;;;5.75;1.40;;;;;;;27.14;33.61;100681.49;1736118;82;21083;-76
2022/07/03 05:45:26;;;;;;;2.12;1.42;;;;;;;27.29;33.09;100672.01;1728725;82;21050;-77
2022/07/03 05:47:55;;;;;;;1.60;1.20;;;;;;;27.46;31.89;100671.78;1739062;82;21059;-80
2022/07/03 05:50:25;;;;;;;2.37;1.62;;;;;;;27.67;30.58;100675.16;1729117;82;21488;-78
2022/07/03 05:52:55;;;;;;;4.03;1.60;;;;;;;27.83;30.13;100676.33;1726075;82;21066;-79
2022/07/03 05:55:24;;;;;;;3.45;1.80;;;;;;;27.99;29.77;100670.16;1738669;82;21047;-81
2022/07/03 05:57:54;;;;;;;2.77;1.82;;;;;;;28.23;29.64;100668.66;1749891;82;21070;-78
2022/07/03 06:00:23;;;;;;;4.25;2.67;;;;;;;28.41;29.38;100666.34;1713320;82;21117;-81
2022/07/03 06:02:52;;;;;;;3.42;1.75;;;;;;;28.67;28.96;100666.72;1736565;82;21069;-78
2022/07/03 06:05:20;;;;;;;4.75;2.50;;;;;;;28.91;28.52;100674.17;1730191;82;21027;-79
2022/07/03 06:07:49;;;;;;;3.65;2.17;;;;;;;29.07;27.54;100673.28;1750021;82;21035;-80
2022/07/03 06:10:18;;;;;;;4.92;2.35;;;;;;;29.18;27.60;100670.50;1784310;80;21094;-77
2022/07/03 06:12:47;;;;;;;2.62;1.95;;;;;;;29.37;27.59;100675.45;1789125;80;21035;-80
2022/07/03 06:15:17;;;;;;;5.45;2.45;;;;;;;29.52;27.19;100668.66;1788556;80;21036;-77
2022/07/03 06:17:47;;;;;;;2.80;2.10;;;;;;;29.61;27.11;100673.80;1786935;80;21010;-81
2022/07/03 06:20:15;;;;;;;3.42;2.30;;;;;;;29.66;27.09;100680.75;1777072;80;20968;-77
2022/07/03 06:22:44;;;;;;;4.40;2.05;;;;;;;29.68;27.36;100678.44;1776015;80;21019;-78
2022/07/03 06:25:13;;;;;;;4.78;2.25;;;;;;;29.73;27.27;100676.91;1758385;80;21062;-78
2022/07/03 06:27:42;;;;;;;4.97;2.08;;;;;;;29.71;27.18;100673.56;1758073;80;21015;-79
2022/07/03 06:30:12;;;;;;;4.62;2.72;;;;;;;29.66;27.51;100674.52;1782839;80;21096;-80
2022/07/03 06:32:41;;;;;;;4.17;2.50;;;;;;;29.59;27.62;100662.83;1769549;80;21014;-78
2022/07/03 06:35:11;;;;;;;2.45;2.17;;;;;;;29.52;27.61;100663.01;1770041;80;21090;-79
2022/07/03 06:37:40;;;;;;;3.60;2.25;;;;;;;29.49;27.83;100665.05;1766775;80;21030;-78
2022/07/03 06:40:11;;;;;;;9.53;3.27;;;;;;;29.52;27.85;100663.84;1773844;80;21072;-80
2022/07/03 06:42:39;;;;;;;6.45;2.80;;;;;;;29.61;28.13;100659.11;1757771;81;21043;-78
2022/07/03 06:45:09;;;;;;;4.20;2.37;;;;;;;29.84;28.25;100654.31;1766886;80;20999;-77
2022/07/03 06:47:39;;;;;;;5.90;2.67;;;;;;;30.10;28.09;100651.73;1769942;80;21028;-81
2022/07/03 06:50:09;;;;;;;4.28;2.35;;;;;;;30.36;27.65;100663.20;1785968;80;21026;-81
2022/07/03 06:52:39;;;;;;;4.10;2.30;;;;;;;30.57;27.45;100664.92;1779230;80;21042;-79
2022/07/03 06:55:08;;;;;;;4.80;2.60;;;;;;;30.68;27.57;100658.43;1731448;80;21025;-80
2022/07/03 06:57:38;;;;;;;3.12;2.20;;;;;;;30.87;27.46;100657.00;1758322;80;21042;-77
2022/07/03 07:00:12;;;;;;;6.00;2.40;;;;;;;31.07;27.04;100655.56;1777382;80;21054;-78
2022/07/03 07:02:42;;;;;;;4.83;2.30;;;;;;;31.26;26.95;100651.09;1767252;80;20988;-77
2022/07/03 07:05:11;;;;;;;6.78;3.10;;;;;;;31.44;26.44;100654.78;1775114;80;20972;-76
2022/07/03 07:07:40;;;;;;;5.85;2.90;;;;;;;31.53;26.54;100650.79;1770679;80;21068;-79
2022/07/03 07:10:10;;;;;;;5.25;3.10;;;;;;;31.67;26.22;100654.88;1767425;80;21274;-78
2022/07/03 07:12:39;;;;;;;6.20;3.10;;;;;;;31.84;26.30;100649.23;1758493;80;21045;-80
2022/07/03 07:15:09;;;;;;;4.65;3.00;;;;;;;31.84;26.03;100653.48;1756356;80;20998;-80
2022/07/03 07:17:38;;;;;;;6.78;2.87;;;;;;;31.91;26.11;100652.17;1777890;80;21039;-80
2022/07/03 07:20:09;;;;;;;6.50;3.08;;;;;;;32.05;25.76;100651.41;1788878;80;21006;-78
2022/07/03 07:22:38;;;;;;;6.08;3.30;;;;;;;32.02;25.86;100644.99;1783125;80;21098;-80
2022/07/03 07:25:07;;;;;;;6.05;3.40;;;;;;;32.14;25.75;100648.80;1770977;80;21063;-78
2022/07/03 07:27:36;;;;;;;4.15;2.83;;;;;;;32.32;25.06;100653.05;1758889;80;21043;-80
2022/07/03 07:30:07;;;;;;;6.25;2.77;;;;;;;32.37;25.03;100650.03;1770447;80;21030;-80
2022/07/03 07:32:36;;;;;;;5.50;3.12;;;;;;;32.43;25.19;100659.44;1756203;80;21048;-79
2022/07/03 07:35:07;;;;;;;5.50;2.85;;;;;;;32.49;24.87;100654.41;1768584;80;21015;-78
2022/07/03 07:37:37;;;;;;;6.10;3.08;;;;;;;32.53;24.88;100651.17;1763872;80;21015;-80
2022/07/03 07:40:08;;;;;;;6.15;2.98;;;;;;;32.59;24.92;100642.73;1777053;80;21048;-79
2022/07/03 07:42:37;;;;;;;4.37;2.87;;;;;;;32.46;24.76;100648.83;1757862;80;21055;-79
2022/07/03 07:45:08;;;;;;;3.60;2.77;;;;;;;32.26;25.01;100645.30;1764290;80;21415;-79
2022/07/03 07:47:37;;;;;;;7.58;3.10;;;;;;;32.03;25.63;100652.33;1771343;80;21044;-77
2022/07/03 07:50:08;;;;;;;4.47;2.90;;;;;;;31.97;25.68;100645.16;1781180;80;20991;-80
2022/07/03 07:52:36;;;;;;;3.90;2.77;;;;;;;32.02;25.84;100643.58;1783756;80;21444;-71
2022/07/03 07:55:07;;;;;;;3.40;2.72;;;;;;;32.15;25.83;100644.80;1777141;80;21098;-80
2022/07/03 07:57:38;;;;;;;4.17;2.80;;;;;;;32.37;25.76;100639.52;1760931;80;20991;-70
2022/07/03 08:00:14;;;;;;;4.83;3.10;;;;;;;32.65;25.66;100647.63;1775962;80;21070;-72
2022/07/03 08:05:38;;;;;;;6.10;3.10;;;;;;;32.83;25.17;100646.41;1755928;80;20204;-72
2022/07/03 08:08:13;;;;;;;4.60;2.90;;;;;;;32.79;25.33;100642.59;1755166;80;21071;-70
2022/07/03 08:10:48;;;;;;;5.95;3.33;;;;;;;32.92;25.08;100648.61;1782202;80;21110;-70
2022/07/03 08:13:18;;;;;;;4.83;3.15;;;;;;;32.95;25.13;100637.16;1765317;80;21015;-73
2022/07/03 08:15:48;;;;;;;6.33;3.30;;;;;;;32.92;24.95;100644.94;1783038;80;20999;-72
2022/07/03 08:18:17;;;;;;;8.30;3.30;;;;;;;32.78;25.27;100648.02;1761466;80;20980;-71
2022/07/03 08:20:46;;;;;;;5.50;2.92;;;;;;;32.90;25.50;100646.70;1763963;80;21031;-72
2022/07/03 08:23:15;;;;;;;4.35;3.10;;;;;;;33.09;25.19;100644.84;1769059;80;21062;-71
2022/07/03 08:25:44;;;;;;;6.03;3.00;;;;;;;33.14;24.82;100656.59;1771007;80;21095;-72
2022/07/03 08:28:13;;;;;;;3.40;3.05;;;;;;;33.07;24.88;100654.30;1774566;80;21465;-71
2022/07/03 08:30:45;;;;;;;9.20;3.30;;;;;;;32.98;24.80;100651.50;1769790;80;21063;-72
2022/07/03 08:33:14;;;;;;;4.17;3.00;;;;;;;32.82;25.05;100654.67;1763164;80;21432;-72
2022/07/03 08:35:43;;;;;;;4.95;3.40;;;;;;;32.62;25.20;100656.23;1771141;80;21019;-72
2022/07/03 08:38:12;;;;;;;4.72;3.10;;;;;;;32.41;25.51;100656.11;1774251;80;21051;-73
2022/07/03 08:40:41;;;;;;;5.22;2.95;;;;;;;32.19;25.55;100648.38;1758382;80;21086;-69
2022/07/03 08:43:10;;;;;;;6.12;3.30;;;;;;;31.76;26.32;100642.16;1783287;80;21103;-72
2022/07/03 08:45:39;;;;;;;4.22;3.20;;;;;;;31.47;26.73;100643.62;1776031;80;20999;-71
2022/07/03 08:48:08;;;;;;;3.90;3.50;;;;;;;31.39;26.79;100645.86;1772775;80;21451;-72
2022/07/03 08:50:40;;;;;;;4.05;3.25;;;;;;;31.53;26.79;100634.38;1768560;80;21468;-69
2022/07/03 08:53:11;;;;;;;4.42;3.20;;;;;;;31.83;26.58;100633.39;1745415;82;21051;-70
2022/07/03 08:55:40;;;;;;;6.17;3.40;;;;;;;32.07;26.19;100632.06;1715456;83;21070;-71
2022/07/03 08:58:10;;;;;;;3.87;3.00;;;;;;;32.15;26.30;100629.79;1727534;82;21127;-70
2022/07/03 09:00:41;;;;;;;9.25;3.30;;;;;;;32.25;26.11;100633.72;1738599;82;21428;-71
2022/07/03 09:03:11;;;;;;;7.05;3.00;;;;;;;32.33;25.94;100633.44;1738746;82;21469;-70
2022/07/03 09:05:40;;;;;;;5.15;3.05;;;;;;;32.28;25.77;100633.04;1712268;83;20992;-69
2022/07/03 09:08:10;;;;;;;4.85;3.30;;;;;;;32.13;26.16;100623.03;1733040;82;21099;-70
2022/07/03 09:10:40;;;;;;;4.10;3.33;;;;;;;32.02;26.04;100637.91;1701112;83;21023;-71
2022/07/03 09:13:09;;;;;;;4.80;3.22;;;;;;;31.83;26.03;100630.56;1702928;83;21020;-70
2022/07/03 09:15:39;;;;;;;6.53;3.40;;;;;;;31.67;26.16;100629.38;1655414;84;21535;-71
2022/07/03 09:18:08;;;;;;;5.10;3.20;;;;;;;31.48;26.45;100624.63;1720103;83;21039;-70
2022/07/03 09:20:40;;;;;;;4.62;3.10;;;;;;;31.26;26.65;100617.70;1701032;83;21075;-69
2022/07/03 09:23:19;;;;;;;7.08;3.67;;;;;;;31.13;27.76;100616.03;1714441;83;21066;-69
2022/07/03 09:25:59;;;;;;;6.47;3.65;;;;;;;31.19;27.41;100618.98;1706084;83;21019;-70
2022/07/03 09:28:52;;;;;;;5.22;3.20;;;;;;;31.20;26.89;100627.73;1719936;83;21119;-70
2022/07/03 09:31:27;;;;;;;9.18;3.52;;;;;;;31.15;26.65;100619.98;1712688;83;21305;-70
2022/07/03 09:34:09;;;;;;;4.08;2.98;;;;;;;31.17;26.80;100620.48;1712910;83;21043;-69
2022/07/03 09:36:53;;;;;;;5.92;3.47;;;;;;;31.21;27.17;100622.35;1712153;83;21071;-71
2022/07/03 09:39:30;;;;;;;7.87;3.47;;;;;;;31.21;27.11;100615.83;1715948;83;22393;-70
2022/07/03 09:42:07;;;;;;;5.15;2.77;;;;;;;31.15;26.94;100624.23;1745219;82;21438;-69
2022/07/03 09:44:45;;;;;;;;;;;;;;;31.00;26.97;100621.83;1712291;83;21020;-70
2022/07/03 09:47:22;;;;;;;5.25;2.98;;;;;;;30.86;27.21;100623.37;1721140;83;20215;-74
2022/07/03 09:50:02;;;;;;;4.10;2.72;;;;;;;30.80;27.67;100614.78;1731080;82;21484;-74
2022/07/03 09:52:39;;;;;;;6.42;3.40;;;;;;;30.83;27.24;100612.13;1704889;82;21002;-78
2022/07/03 09:55:15;;;;;;;6.65;3.17;;;;;;;30.80;27.46;100609.13;1704185;83;21094;-78
2022/07/03 09:57:53;;;;;;;4.47;2.92;;;;;;;30.77;27.46;100598.47;1716975;83;21028;-70
2022/07/03 10:00:28;;;;;;;4.83;3.27;;;;;;;30.70;27.56;100605.18;1722917;82;21329;-73
2022/07/03 10:03:03;;;;;;;5.78;3.15;;;;;;;30.68;27.74;100604.67;1739628;82;21059;-73
2022/07/03 10:05:35;;;;;;;4.85;3.40;;;;;;;30.67;28.07;100600.18;1732813;82;21084;-73
2022/07/03 10:08:08;;;;;;;6.95;3.47;;;;;;;30.72;28.33;100596.63;1696876;84;21091;-72
2022/07/03 10:10:40;;;;;;;4.55;3.52;;;;;;;30.73;27.93;100596.04;1682099;83;21189;-73
2022/07/03 10:13:10;;;;;;;5.40;3.10;;;;;;;30.68;28.24;100597.02;1712821;83;21476;-74
2022/07/03 10:15:39;;;;;;;9.00;3.10;;;;;;;30.66;28.12;100595.69;1715282;83;21031;-76
2022/07/03 10:18:11;;;;;;;5.47;3.20;;;;;;;30.61;28.18;100597.25;1715086;83;21027;-72
2022/07/03 10:20:47;;;;;;;5.00;3.17;;;;;;;30.55;28.22;100597.33;1713971;83;20999;-74
2022/07/03 10:23:22;;;;;;;8.98;3.47;;;;;;;30.51;28.16;100602.55;1712585;83;21035;-74
2022/07/03 10:25:51;;;;;;;7.50;3.25;;;;;;;30.36;28.38;100605.81;1718663;83;21083;-74
2022/07/03 10:28:20;;;;;;;5.33;3.05;;;;;;;30.28;28.58;100605.44;1717630;83;21031;-72
2022/07/03 10:30:49;;;;;;;6.97;3.40;;;;;;;30.24;28.70;100610.08;1718122;83;21134;-72
2022/07/03 10:33:18;;;;;;;6.33;3.90;;;;;;;30.22;28.99;100606.75;1706844;83;21098;-74
2022/07/03 10:35:53;;;;;;;5.65;3.42;;;;;;;30.18;29.04;100606.30;1718072;83;21536;-67
2022/07/03 10:38:40;;;;;;;7.30;3.70;;;;;;;30.13;28.91;100600.78;1717868;83;21102;-63
2022/07/03 10:47:47;;;;;;;4.35;3.05;;;;;;;29.96;29.75;100602.32;1708897;83;21202;-71
2022/07/03 10:50:19;;;;;;;7.03;3.27;;;;;;;30.01;29.21;100599.11;1710956;83;21071;-69
2022/07/03 10:52:50;;;;;;;7.67;3.35;;;;;;;30.00;29.28;100602.51;1705996;83;21543;-73
2022/07/03 10:55:19;;;;;;;4.72;2.90;;;;;;;29.96;29.12;100594.42;1729464;83;21019;-70
2022/07/03 10:58:10;;;;;;;5.83;3.02;;;;;;;29.82;29.41;100593.63;1714962;83;21027;-73
2022/07/03 11:00:57;;;;;;;4.70;3.33;;;;;;;29.78;30.21;100587.79;1714411;83;21044;-72
2022/07/03 11:03:55;;;;;;;7.47;3.63;;;;;;;29.78;30.21;100587.79;1718245;83;21479;-74
2022/07/03 11:06:48;;;;;;;5.40;3.00;;;;;;;29.78;30.36;100596.84;1651536;83;21011;-71
2022/07/03 11:09:18;;;;;;;7.50;3.52;;;;;;;29.78;30.36;100596.84;1698728;84;21023;-71
2022/07/03 11:11:57;;;;;;;7.08;3.33;;;;;;;29.59;31.04;100582.91;1683612;83;21102;-66
2022/07/03 11:14:28;;;;;;;6.25;3.47;;;;;;;29.59;31.04;100582.91;1609016;88;21087;-65
2022/07/03 11:17:22;;;;;;;17.50;13.00;;;;;;;29.50;31.73;100591.90;1596956;89;21142;-67
2022/07/03 11:22:52;;;;;;;5.70;3.60;;;;;;;29.29;32.14;100586.71;1594514;89;21102;-76
2022/07/03 11:25:21;;;;;;;6.15;3.40;;;;;;;29.20;32.18;100580.70;1594038;89;21056;-76
2022/07/03 11:27:52;;;;;;;6.37;3.33;;;;;;;29.17;33.68;100581.33;1581922;88;21525;-78
2022/07/03 11:30:21;;;;;;;5.50;3.10;;;;;;;29.17;36.08;100582.16;1581756;89;21081;-76
2022/07/03 11:32:57;;;;;;;6.30;3.60;;;;;;;29.11;38.63;100582.60;1653163;84;21130;-78
2022/07/03 11:35:46;;;;;;;8.15;3.83;;;;;;;28.95;39.71;100584.36;1684368;85;21036;-80
2022/07/03 11:38:22;;;;;;;5.05;3.70;;;;;;;28.69;41.13;100575.59;1669186;85;21502;-79
2022/07/03 11:40:52;;;;;;;7.47;4.37;;;;;;;28.39;43.95;100593.09;1694367;83;21598;-79
2022/07/03 11:43:22;;;;;;;7.00;3.98;;;;;;;28.08;45.35;100584.37;1705377;83;21046;-71
2022/07/03 11:45:51;;;;;;;7.72;5.17;;;;;;;27.76;45.23;100578.16;1659186;85;21042;-71
2022/07/03 11:48:23;;;;;;;5.35;4.20;;;;;;;27.47;47.34;100569.88;1683437;84;21039;-71
2022/07/03 11:50:52;;;;;;;7.58;4.35;;;;;;;27.27;47.74;100578.05;1665293;84;21044;-73
2022/07/03 11:53:24;;;;;;;6.33;3.87;;;;;;;27.08;49.16;100574.39;1681541;84;21034;-69
2022/07/03 11:56:02;;;;;;;6.90;4.22;;;;;;;26.94;49.82;100567.25;1694900;84;21046;-69
2022/07/03 11:58:45;;;;;;;8.08;4.12;;;;;;;26.85;49.21;100570.47;1672389;84;21047;-75
2022/07/03 12:01:29;;;;;;;8.43;4.00;;;;;;;26.78;47.80;100563.81;1688711;84;21030;-76
2022/07/03 12:04:17;;;;;;;7.08;4.22;;;;;;;26.77;46.85;100559.33;1683521;85;21042;-75
2022/07/03 12:06:52;;;;;;;8.03;4.28;;;;;;;26.74;45.68;100561.34;1694400;84;21542;-77